sensor_id;sensor_type;location;lat;lon;timestamp;pressure;altitude;pressure_sealevel;temperature;humidity
10688;BME280;5392;42.688;23.298;2024-03-23T00:53:46;94894.91;;;3.63;64.51
10688;BME280;5392;42.688;23.298;2024-03-23T00:56:12;94893.91;;;3.64;64.46
10688;BME280;5392;42.688;23.298;2024-03-23T00:58:37;94897.28;;;3.64;63.85
10688;BME280;5392;42.688;23.298;2024-03-23T01:01:03;94889.63;;;3.64;64.40
10688;BME280;5392;42.688;23.298;2024-03-23T01:03:31;94894.25;;;3.61;64.34
10688;BME280;5392;42.688;23.298;2024-03-23T01:06:00;94888.53;;;3.59;64.35
10688;BME280;5392;42.688;23.298;2024-03-23T01:08:26;94891.53;;;3.54;64.55
10688;BME280;5392;42.688;23.298;2024-03-23T01:10:59;94890.91;;;3.52;64.49
10688;BME280;5392;42.688;23.298;2024-03-23T01:13:25;94885.13;;;3.50;65.58
10688;BME280;5392;42.688;23.298;2024-03-23T01:15:52;94882.59;;;3.50;65.36
10688;BME280;5392;42.688;23.298;2024-03-23T01:18:18;94885.47;;;3.47;66.03
10688;BME280;5392;42.688;23.298;2024-03-23T01:20:43;94884.19;;;3.43;64.90
10688;BME280;5392;42.688;23.298;2024-03-23T01:23:09;94887.97;;;3.39;65.24
10688;BME280;5392;42.688;23.298;2024-03-23T01:25:35;94887.34;;;3.37;65.54
10688;BME280;5392;42.688;23.298;2024-03-23T01:28:01;94888.44;;;3.35;65.44
10688;BME280;5392;42.688;23.298;2024-03-23T01:30:26;94884.31;;;3.34;64.54
10688;BME280;5392;42.688;23.298;2024-03-23T01:32:52;94889.41;;;3.34;64.54
10688;BME280;5392;42.688;23.298;2024-03-23T01:35:17;94890.53;;;3.31;63.32
10688;BME280;5392;42.688;23.298;2024-03-23T01:37:43;94895.13;;;3.28;62.91
10688;BME280;5392;42.688;23.298;2024-03-23T01:40:09;94893.53;;;3.19;64.16
10688;BME280;5392;42.688;23.298;2024-03-23T01:42:34;94882.81;;;3.07;65.67
10688;BME280;5392;42.688;23.298;2024-03-23T01:45:00;94881.81;;;3.00;65.62
10688;BME280;5392;42.688;23.298;2024-03-23T01:47:25;94883.53;;;2.91;65.67
10688;BME280;5392;42.688;23.298;2024-03-23T01:49:51;94881.75;;;2.84;67.18
10688;BME280;5392;42.688;23.298;2024-03-23T01:52:17;94885.72;;;2.78;66.62
10688;BME280;5392;42.688;23.298;2024-03-23T01:54:43;94884.44;;;2.74;67.08
10688;BME280;5392;42.688;23.298;2024-03-23T01:57:09;94887.13;;;2.73;66.99
10688;BME280;5392;42.688;23.298;2024-03-23T01:59:35;94881.69;;;2.68;67.72
10688;BME280;5392;42.688;23.298;2024-03-23T02:02:01;94883.72;;;2.64;67.27
10688;BME280;5392;42.688;23.298;2024-03-23T02:04:26;94884.19;;;2.60;67.86
10688;BME280;5392;42.688;23.298;2024-03-23T02:06:52;94892.44;;;2.54;67.91
10688;BME280;5392;42.688;23.298;2024-03-23T02:09:17;94890.81;;;2.53;67.93
10688;BME280;5392;42.688;23.298;2024-03-23T02:11:43;94886.38;;;2.55;67.88
10688;BME280;5392;42.688;23.298;2024-03-23T02:14:08;94885.28;;;2.57;68.04
10688;BME280;5392;42.688;23.298;2024-03-23T02:16:34;94893.72;;;2.58;68.25
10688;BME280;5392;42.688;23.298;2024-03-23T02:19:01;94889.88;;;2.54;67.97
10688;BME280;5392;42.688;23.298;2024-03-23T02:21:26;94899.88;;;2.47;68.18
10688;BME280;5392;42.688;23.298;2024-03-23T02:23:52;94897.47;;;2.46;69.03
10688;BME280;5392;42.688;23.298;2024-03-23T02:26:18;94896.03;;;2.43;68.84
10688;BME280;5392;42.688;23.298;2024-03-23T02:28:43;94903.97;;;2.40;68.85
10688;BME280;5392;42.688;23.298;2024-03-23T02:31:09;94904.13;;;2.39;68.53
10688;BME280;5392;42.688;23.298;2024-03-23T02:33:34;94903.44;;;2.37;68.81
10688;BME280;5392;42.688;23.298;2024-03-23T02:36:03;94903.75;;;2.34;68.92
10688;BME280;5392;42.688;23.298;2024-03-23T02:38:29;94900.38;;;2.25;68.96
10688;BME280;5392;42.688;23.298;2024-03-23T02:40:54;94894.56;;;2.15;69.39
10688;BME280;5392;42.688;23.298;2024-03-23T02:43:20;94898.56;;;2.17;69.08
10688;BME280;5392;42.688;23.298;2024-03-23T02:45:45;94895.66;;;2.12;69.17
10688;BME280;5392;42.688;23.298;2024-03-23T02:48:11;94899.00;;;2.13;69.99
10688;BME280;5392;42.688;23.298;2024-03-23T02:50:36;94895.66;;;2.12;69.51
10688;BME280;5392;42.688;23.298;2024-03-23T02:53:02;94891.16;;;2.06;69.47
10688;BME280;5392;42.688;23.298;2024-03-23T02:55:27;94887.97;;;2.04;69.53
10688;BME280;5392;42.688;23.298;2024-03-23T02:57:53;94888.13;;;2.03;69.36
10688;BME280;5392;42.688;23.298;2024-03-23T03:00:18;94892.53;;;2.01;69.84
10688;BME280;5392;42.688;23.298;2024-03-23T03:02:44;94886.47;;;1.94;70.35
10688;BME280;5392;42.688;23.298;2024-03-23T03:05:09;94885.94;;;1.90;70.54
10688;BME280;5392;42.688;23.298;2024-03-23T03:07:36;94890.75;;;1.93;70.28
10688;BME280;5392;42.688;23.298;2024-03-23T03:10:04;94886.09;;;1.89;70.64
10688;BME280;5392;42.688;23.298;2024-03-23T03:12:31;94897.84;;;1.90;70.17
10688;BME280;5392;42.688;23.298;2024-03-23T03:14:57;94885.16;;;1.90;70.54
10688;BME280;5392;42.688;23.298;2024-03-23T03:17:22;94885.03;;;1.91;70.57
10688;BME280;5392;42.688;23.298;2024-03-23T03:19:48;94897.06;;;1.89;70.47
10688;BME280;5392;42.688;23.298;2024-03-23T03:22:14;94896.13;;;1.90;70.16
10688;BME280;5392;42.688;23.298;2024-03-23T03:24:39;94899.47;;;1.91;70.86
10688;BME280;5392;42.688;23.298;2024-03-23T03:27:05;94896.44;;;1.87;71.00
10688;BME280;5392;42.688;23.298;2024-03-23T03:29:32;94893.09;;;1.87;70.67
10688;BME280;5392;42.688;23.298;2024-03-23T03:32:01;94894.00;;;1.86;71.05
10688;BME280;5392;42.688;23.298;2024-03-23T03:34:27;94893.09;;;1.87;70.90
10688;BME280;5392;42.688;23.298;2024-03-23T03:36:52;94899.91;;;1.86;70.77
10688;BME280;5392;42.688;23.298;2024-03-23T03:39:18;94892.28;;;1.86;70.39
10688;BME280;5392;42.688;23.298;2024-03-23T03:41:43;94895.75;;;1.85;70.40
10688;BME280;5392;42.688;23.298;2024-03-23T03:44:09;94887.47;;;1.83;70.74
10688;BME280;5392;42.688;23.298;2024-03-23T03:46:34;94890.19;;;1.82;70.65
10688;BME280;5392;42.688;23.298;2024-03-23T03:48:59;94897.00;;;1.81;70.36
10688;BME280;5392;42.688;23.298;2024-03-23T03:51:25;94896.22;;;1.81;70.12
10688;BME280;5392;42.688;23.298;2024-03-23T03:53:50;94893.00;;;1.79;71.06
10688;BME280;5392;42.688;23.298;2024-03-23T03:56:16;94899.03;;;1.78;70.26
10688;BME280;5392;42.688;23.298;2024-03-23T03:58:41;94897.31;;;1.78;70.32
10688;BME280;5392;42.688;23.298;2024-03-23T04:01:07;94894.13;;;1.76;70.86
10688;BME280;5392;42.688;23.298;2024-03-23T04:03:32;94897.44;;;1.77;70.96
10688;BME280;5392;42.688;23.298;2024-03-23T04:05:58;94893.31;;;1.76;70.51
10688;BME280;5392;42.688;23.298;2024-03-23T04:08:24;94895.97;;;1.74;71.10
10688;BME280;5392;42.688;23.298;2024-03-23T04:10:49;94892.13;;;1.70;70.84
10688;BME280;5392;42.688;23.298;2024-03-23T04:13:15;94897.59;;;1.75;71.27
10688;BME280;5392;42.688;23.298;2024-03-23T04:15:41;94905.22;;;1.75;71.41
10688;BME280;5392;42.688;23.298;2024-03-23T04:18:07;94902.38;;;1.78;70.44
10688;BME280;5392;42.688;23.298;2024-03-23T04:20:33;94908.25;;;1.79;71.06
10688;BME280;5392;42.688;23.298;2024-03-23T04:22:59;94908.78;;;1.82;71.15
10688;BME280;5392;42.688;23.298;2024-03-23T04:25:25;94906.06;;;1.84;70.84
10688;BME280;5392;42.688;23.298;2024-03-23T04:27:50;94907.38;;;1.88;70.96
10688;BME280;5392;42.688;23.298;2024-03-23T04:30:16;94904.59;;;1.99;71.03
10688;BME280;5392;42.688;23.298;2024-03-23T04:32:43;94903.34;;;2.20;70.53
10688;BME280;5392;42.688;23.298;2024-03-23T04:35:08;94904.16;;;2.47;69.05
10688;BME280;5392;42.688;23.298;2024-03-23T04:37:38;94910.72;;;2.83;67.90
10688;BME280;5392;42.688;23.298;2024-03-23T04:40:06;94903.53;;;3.20;66.97
10688;BME280;5392;42.688;23.298;2024-03-23T04:42:32;94896.16;;;3.67;65.00
10688;BME280;5392;42.688;23.298;2024-03-23T04:44:58;94905.28;;;4.18;63.68
10688;BME280;5392;42.688;23.298;2024-03-23T04:47:23;94912.69;;;4.76;61.20
10688;BME280;5392;42.688;23.298;2024-03-23T04:49:49;94915.66;;;5.42;58.93
10688;BME280;5392;42.688;23.298;2024-03-23T04:52:14;94910.00;;;6.08;56.91
10688;BME280;5392;42.688;23.298;2024-03-23T04:54:40;94912.44;;;6.76;55.41
10688;BME280;5392;42.688;23.298;2024-03-23T04:57:06;94914.91;;;7.43;53.07
10688;BME280;5392;42.688;23.298;2024-03-23T04:59:32;94913.00;;;8.08;50.58
10688;BME280;5392;42.688;23.298;2024-03-23T05:01:58;94910.22;;;8.73;49.47
10688;BME280;5392;42.688;23.298;2024-03-23T05:04:23;94908.03;;;9.38;47.16
10688;BME280;5392;42.688;23.298;2024-03-23T05:06:49;94906.81;;;9.88;45.44
10688;BME280;5392;42.688;23.298;2024-03-23T05:09:14;94901.16;;;10.19;43.59
10688;BME280;5392;42.688;23.298;2024-03-23T05:11:40;94901.97;;;10.33;42.63
10688;BME280;5392;42.688;23.298;2024-03-23T05:14:07;94901.38;;;10.50;42.22
10688;BME280;5392;42.688;23.298;2024-03-23T05:16:32;94899.44;;;11.42;40.25
10688;BME280;5392;42.688;23.298;2024-03-23T05:18:58;94899.50;;;11.80;39.58
10688;BME280;5392;42.688;23.298;2024-03-23T05:21:24;94897.72;;;12.36;38.64
10688;BME280;5392;42.688;23.298;2024-03-23T05:23:49;94888.97;;;12.87;37.49
10688;BME280;5392;42.688;23.298;2024-03-23T05:26:15;94893.19;;;13.06;36.71
10688;BME280;5392;42.688;23.298;2024-03-23T05:28:40;94896.97;;;13.03;37.14
10688;BME280;5392;42.688;23.298;2024-03-23T05:31:06;94889.50;;;12.95;37.52
10688;BME280;5392;42.688;23.298;2024-03-23T05:33:31;94895.38;;;13.45;35.05
10688;BME280;5392;42.688;23.298;2024-03-23T05:35:58;94890.22;;;13.75;34.75
10688;BME280;5392;42.688;23.298;2024-03-23T05:38:24;94892.81;;;13.75;34.75
10688;BME280;5392;42.688;23.298;2024-03-23T05:40:59;94889.13;;;13.82;33.25
10688;BME280;5392;42.688;23.298;2024-03-23T05:43:26;94897.94;;;14.23;33.26
10688;BME280;5392;42.688;23.298;2024-03-23T05:45:55;94895.47;;;14.69;33.16
10688;BME280;5392;42.688;23.298;2024-03-23T05:48:21;94890.16;;;14.52;32.54
10688;BME280;5392;42.688;23.298;2024-03-23T05:50:48;94895.59;;;14.86;32.88
10688;BME280;5392;42.688;23.298;2024-03-23T05:53:17;94886.63;;;15.63;31.06
10688;BME280;5392;42.688;23.298;2024-03-23T05:55:43;94881.78;;;15.31;31.43
10688;BME280;5392;42.688;23.298;2024-03-23T05:58:09;94890.88;;;15.06;31.44
10688;BME280;5392;42.688;23.298;2024-03-23T06:00:35;94889.94;;;15.47;30.80
10688;BME280;5392;42.688;23.298;2024-03-23T06:03:01;94888.72;;;16.05;30.01
10688;BME280;5392;42.688;23.298;2024-03-23T06:05:27;94887.09;;;16.61;29.03
10688;BME280;5392;42.688;23.298;2024-03-23T06:07:52;94884.09;;;17.02;28.12
10688;BME280;5392;42.688;23.298;2024-03-23T06:10:18;94889.88;;;17.47;27.42
10688;BME280;5392;42.688;23.298;2024-03-23T06:12:45;94884.00;;;17.74;26.42
10688;BME280;5392;42.688;23.298;2024-03-23T06:15:11;94884.50;;;17.97;26.92
10688;BME280;5392;42.688;23.298;2024-03-23T06:17:36;94886.72;;;17.62;27.35
10688;BME280;5392;42.688;23.298;2024-03-23T06:20:02;94886.34;;;17.15;27.80
10688;BME280;5392;42.688;23.298;2024-03-23T06:22:28;94878.16;;;17.45;27.36
10688;BME280;5392;42.688;23.298;2024-03-23T06:24:54;94870.84;;;16.87;28.65
10688;BME280;5392;42.688;23.298;2024-03-23T06:27:19;94890.81;;;15.64;29.79
10688;BME280;5392;42.688;23.298;2024-03-23T06:29:45;94877.16;;;16.91;28.69
10688;BME280;5392;42.688;23.298;2024-03-23T06:32:10;94878.63;;;17.59;27.46
10688;BME280;5392;42.688;23.298;2024-03-23T06:34:36;94879.09;;;18.04;25.96
10688;BME280;5392;42.688;23.298;2024-03-23T06:37:01;94883.63;;;18.40;26.37
10688;BME280;5392;42.688;23.298;2024-03-23T06:39:28;94876.75;;;18.02;26.66
10688;BME280;5392;42.688;23.298;2024-03-23T06:41:54;94884.31;;;18.52;25.79
10688;BME280;5392;42.688;23.298;2024-03-23T06:44:20;94879.00;;;17.12;28.03
10688;BME280;5392;42.688;23.298;2024-03-23T06:46:46;94888.16;;;17.96;26.12
10688;BME280;5392;42.688;23.298;2024-03-23T06:49:12;94880.53;;;18.43;25.52
10688;BME280;5392;42.688;23.298;2024-03-23T06:51:39;94872.13;;;19.05;25.52
10688;BME280;5392;42.688;23.298;2024-03-23T06:54:05;94881.25;;;19.39;23.89
10688;BME280;5392;42.688;23.298;2024-03-23T06:56:30;94880.97;;;20.07;23.02
10688;BME280;5392;42.688;23.298;2024-03-23T06:58:56;94873.63;;;20.04;23.13
10688;BME280;5392;42.688;23.298;2024-03-23T07:01:22;94877.41;;;20.33;23.34
10688;BME280;5392;42.688;23.298;2024-03-23T07:03:47;94873.19;;;20.22;23.35
10688;BME280;5392;42.688;23.298;2024-03-23T07:06:13;94874.47;;;19.43;23.94
10688;BME280;5392;42.688;23.298;2024-03-23T07:08:38;94875.16;;;19.85;23.02
10688;BME280;5392;42.688;23.298;2024-03-23T07:11:04;94858.19;;;19.98;23.01
10688;BME280;5392;42.688;23.298;2024-03-23T07:13:30;94866.44;;;20.77;22.28
10688;BME280;5392;42.688;23.298;2024-03-23T07:15:56;94856.19;;;20.60;22.59
10688;BME280;5392;42.688;23.298;2024-03-23T07:18:22;94858.00;;;20.24;22.86
10688;BME280;5392;42.688;23.298;2024-03-23T07:20:57;94859.88;;;20.44;22.75
10688;BME280;5392;42.688;23.298;2024-03-23T07:23:23;94856.72;;;21.13;21.89
10688;BME280;5392;42.688;23.298;2024-03-23T07:26:05;94853.28;;;21.96;21.11
10688;BME280;5392;42.688;23.298;2024-03-23T07:28:31;94851.72;;;21.26;21.65
10688;BME280;5392;42.688;23.298;2024-03-23T07:31:05;94852.00;;;20.74;22.17
10688;BME280;5392;42.688;23.298;2024-03-23T07:33:31;94848.88;;;20.77;22.38
10688;BME280;5392;42.688;23.298;2024-03-23T07:35:57;94852.66;;;18.80;24.31
10688;BME280;5392;42.688;23.298;2024-03-23T07:38:24;94852.03;;;20.44;22.98
10688;BME280;5392;42.688;23.298;2024-03-23T07:40:49;94847.72;;;19.93;22.82
10688;BME280;5392;42.688;23.298;2024-03-23T07:43:20;94849.38;;;20.24;22.18
10688;BME280;5392;42.688;23.298;2024-03-23T07:45:52;94841.56;;;20.44;22.77
10688;BME280;5392;42.688;23.298;2024-03-23T07:48:18;94837.06;;;20.90;21.73
10688;BME280;5392;42.688;23.298;2024-03-23T07:50:43;94841.78;;;18.57;23.52
10688;BME280;5392;42.688;23.298;2024-03-23T07:53:09;94840.09;;;19.76;23.25
10688;BME280;5392;42.688;23.298;2024-03-23T07:55:34;94842.31;;;20.95;21.75
10688;BME280;5392;42.688;23.298;2024-03-23T07:57:59;94841.75;;;21.92;20.71
10688;BME280;5392;42.688;23.298;2024-03-23T08:00:25;94836.88;;;22.58;19.67
10688;BME280;5392;42.688;23.298;2024-03-23T08:02:53;94840.53;;;22.62;20.45
10688;BME280;5392;42.688;23.298;2024-03-23T08:05:19;94838.19;;;22.89;19.49
10688;BME280;5392;42.688;23.298;2024-03-23T08:07:45;94829.94;;;22.38;20.12
10688;BME280;5392;42.688;23.298;2024-03-23T08:10:10;94834.47;;;20.70;21.89
10688;BME280;5392;42.688;23.298;2024-03-23T08:12:38;94832.81;;;19.31;23.97
10688;BME280;5392;42.688;23.298;2024-03-23T08:15:03;94835.28;;;19.48;23.95
10688;BME280;5392;42.688;23.298;2024-03-23T08:17:29;94833.59;;;19.99;23.39
10688;BME280;5392;42.688;23.298;2024-03-23T08:19:55;94825.34;;;21.61;21.08
10688;BME280;5392;42.688;23.298;2024-03-23T08:22:20;94821.66;;;20.48;22.45
10688;BME280;5392;42.688;23.298;2024-03-23T08:24:46;94831.81;;;20.90;21.74
10688;BME280;5392;42.688;23.298;2024-03-23T08:27:11;94828.63;;;21.28;21.83
10688;BME280;5392;42.688;23.298;2024-03-23T08:29:37;94828.28;;;22.81;19.51
10688;BME280;5392;42.688;23.298;2024-03-23T08:32:02;94817.44;;;23.40;18.89
10688;BME280;5392;42.688;23.298;2024-03-23T08:34:28;94823.53;;;24.39;17.98
10688;BME280;5392;42.688;23.298;2024-03-23T08:36:53;94819.28;;;20.62;22.89
10688;BME280;5392;42.688;23.298;2024-03-23T08:39:19;94815.72;;;23.54;18.50
10688;BME280;5392;42.688;23.298;2024-03-23T08:41:44;94810.41;;;23.36;19.05
10688;BME280;5392;42.688;23.298;2024-03-23T08:44:11;94808.88;;;23.53;19.09
10688;BME280;5392;42.688;23.298;2024-03-23T08:46:37;94803.19;;;21.93;20.60
10688;BME280;5392;42.688;23.298;2024-03-23T08:49:02;94808.53;;;21.67;20.84
10688;BME280;5392;42.688;23.298;2024-03-23T08:51:46;94801.84;;;19.03;24.01
10688;BME280;5392;42.688;23.298;2024-03-23T08:54:12;94799.44;;;19.43;24.23
10688;BME280;5392;42.688;23.298;2024-03-23T08:56:37;94793.72;;;18.95;24.30
10688;BME280;5392;42.688;23.298;2024-03-23T08:59:03;94792.63;;;18.85;25.51
10688;BME280;5392;42.688;23.298;2024-03-23T09:01:28;94784.34;;;18.99;24.82
10688;BME280;5392;42.688;23.298;2024-03-23T09:03:54;94782.69;;;17.39;27.65
10688;BME280;5392;42.688;23.298;2024-03-23T09:06:19;94786.38;;;16.61;28.09
10688;BME280;5392;42.688;23.298;2024-03-23T09:08:45;94781.91;;;16.24;29.23
10688;BME280;5392;42.688;23.298;2024-03-23T09:11:12;94771.19;;;15.59;30.63
10688;BME280;5392;42.688;23.298;2024-03-23T09:13:38;94771.91;;;15.31;30.61
10688;BME280;5392;42.688;23.298;2024-03-23T09:16:05;94763.28;;;15.14;31.07
10688;BME280;5392;42.688;23.298;2024-03-23T09:18:35;94765.19;;;14.79;32.61
10688;BME280;5392;42.688;23.298;2024-03-23T09:21:02;94754.34;;;14.24;33.23
10688;BME280;5392;42.688;23.298;2024-03-23T09:23:28;94752.72;;;14.00;33.99
10688;BME280;5392;42.688;23.298;2024-03-23T09:25:53;94749.56;;;13.74;34.48
10688;BME280;5392;42.688;23.298;2024-03-23T09:28:19;94748.78;;;13.85;33.61
10688;BME280;5392;42.688;23.298;2024-03-23T09:30:44;94741.22;;;13.13;35.25
10688;BME280;5392;42.688;23.298;2024-03-23T09:33:10;94750.53;;;12.23;36.58
10688;BME280;5392;42.688;23.298;2024-03-23T09:35:39;94736.97;;;12.28;37.01
10688;BME280;5392;42.688;23.298;2024-03-23T09:38:05;94734.50;;;13.12;35.25
10688;BME280;5392;42.688;23.298;2024-03-23T09:40:32;94725.97;;;13.64;34.95
10688;BME280;5392;42.688;23.298;2024-03-23T09:42:58;94726.13;;;13.81;34.21
10688;BME280;5392;42.688;23.298;2024-03-23T09:45:27;94725.91;;;13.82;34.05
10688;BME280;5392;42.688;23.298;2024-03-23T09:47:53;94721.28;;;13.84;34.55
10688;BME280;5392;42.688;23.298;2024-03-23T09:50:19;94712.06;;;14.00;32.48
10688;BME280;5392;42.688;23.298;2024-03-23T09:52:48;94708.00;;;14.16;33.60
10688;BME280;5392;42.688;23.298;2024-03-23T09:55:14;94707.25;;;14.38;33.35
10688;BME280;5392;42.688;23.298;2024-03-23T09:57:41;94710.81;;;14.60;32.99
10688;BME280;5392;42.688;23.298;2024-03-23T10:00:07;94693.38;;;14.84;31.83
10688;BME280;5392;42.688;23.298;2024-03-23T10:02:34;94700.97;;;14.86;32.17
10688;BME280;5392;42.688;23.298;2024-03-23T10:05:00;94697.31;;;14.98;31.13
10688;BME280;5392;42.688;23.298;2024-03-23T10:07:25;94683.63;;;15.03;31.51
10688;BME280;5392;42.688;23.298;2024-03-23T10:09:53;94681.00;;;15.14;30.29
10688;BME280;5392;42.688;23.298;2024-03-23T10:12:20;94676.66;;;15.03;30.83
10688;BME280;5392;42.688;23.298;2024-03-23T10:14:45;94671.44;;;15.03;30.65
10688;BME280;5392;42.688;23.298;2024-03-23T10:17:19;94675.13;;;14.39;31.75
10688;BME280;5392;42.688;23.298;2024-03-23T10:19:46;94669.94;;;14.39;31.19
10688;BME280;5392;42.688;23.298;2024-03-23T10:22:21;94662.56;;;14.59;31.57
10688;BME280;5392;42.688;23.298;2024-03-23T10:24:47;94661.00;;;14.87;30.93
10688;BME280;5392;42.688;23.298;2024-03-23T10:27:19;94658.28;;;14.93;30.96
10688;BME280;5392;42.688;23.298;2024-03-23T10:29:45;94647.59;;;15.34;30.32
10688;BME280;5392;42.688;23.298;2024-03-23T10:32:11;94648.56;;;15.45;29.31
10688;BME280;5392;42.688;23.298;2024-03-23T10:34:37;94644.31;;;15.56;30.37
10688;BME280;5392;42.688;23.298;2024-03-23T10:37:04;94639.81;;;15.34;30.61
10688;BME280;5392;42.688;23.298;2024-03-23T10:39:34;94637.72;;;15.20;29.86
10688;BME280;5392;42.688;23.298;2024-03-23T10:42:09;94631.97;;;15.01;29.92
10688;BME280;5392;42.688;23.298;2024-03-23T10:44:40;94620.97;;;15.11;30.75
10688;BME280;5392;42.688;23.298;2024-03-23T10:47:05;94621.44;;;15.24;29.58
10688;BME280;5392;42.688;23.298;2024-03-23T10:49:34;94612.00;;;15.02;29.55
10688;BME280;5392;42.688;23.298;2024-03-23T10:52:04;94611.25;;;14.62;31.30
10688;BME280;5392;42.688;23.298;2024-03-23T10:54:32;94600.31;;;15.04;31.06
10688;BME280;5392;42.688;23.298;2024-03-23T10:59:29;94587.31;;;15.32;31.09
10688;BME280;5392;42.688;23.298;2024-03-23T11:01:57;94580.31;;;15.33;30.43
10688;BME280;5392;42.688;23.298;2024-03-23T11:04:36;94575.25;;;15.43;30.67
10688;BME280;5392;42.688;23.298;2024-03-23T11:09:48;94568.97;;;15.56;29.14
10688;BME280;5392;42.688;23.298;2024-03-23T11:14:52;94553.84;;;15.69;30.23
10688;BME280;5392;42.688;23.298;2024-03-23T11:17:19;94551.66;;;15.78;29.45
10688;BME280;5392;42.688;23.298;2024-03-23T11:19:53;94540.81;;;15.48;29.98
10688;BME280;5392;42.688;23.298;2024-03-23T11:25:21;94531.75;;;15.17;30.25
10688;BME280;5392;42.688;23.298;2024-03-23T11:27:48;94535.84;;;15.29;30.07
10688;BME280;5392;42.688;23.298;2024-03-23T11:30:18;94529.63;;;15.47;30.35
10688;BME280;5392;42.688;23.298;2024-03-23T11:32:45;94526.81;;;15.49;30.95
10688;BME280;5392;42.688;23.298;2024-03-23T11:35:31;94522.38;;;15.49;30.51
10688;BME280;5392;42.688;23.298;2024-03-23T11:38:11;94519.59;;;15.72;29.29
10688;BME280;5392;42.688;23.298;2024-03-23T11:40:39;94517.53;;;15.91;29.21
10688;BME280;5392;42.688;23.298;2024-03-23T11:43:06;94510.72;;;15.90;29.27
10688;BME280;5392;42.688;23.298;2024-03-23T11:45:39;94503.31;;;16.20;28.08
10688;BME280;5392;42.688;23.298;2024-03-23T11:48:08;94497.00;;;16.16;28.36
10688;BME280;5392;42.688;23.298;2024-03-23T11:50:37;94491.69;;;16.28;28.15
10688;BME280;5392;42.688;23.298;2024-03-23T11:53:22;94483.41;;;16.31;28.16
10688;BME280;5392;42.688;23.298;2024-03-23T11:55:58;94473.78;;;16.31;27.54
10688;BME280;5392;42.688;23.298;2024-03-23T11:58:25;94464.59;;;16.24;27.69
10688;BME280;5392;42.688;23.298;2024-03-23T12:00:56;94461.22;;;16.01;28.48
10688;BME280;5392;42.688;23.298;2024-03-23T12:03:22;94454.97;;;16.24;28.26
10688;BME280;5392;42.688;23.298;2024-03-23T12:05:52;94452.38;;;16.24;27.43
10688;BME280;5392;42.688;23.298;2024-03-23T12:08:31;94451.25;;;16.42;26.99
10688;BME280;5392;42.688;23.298;2024-03-23T12:11:14;94439.06;;;16.47;27.17
10688;BME280;5392;42.688;23.298;2024-03-23T12:13:41;94437.50;;;16.46;26.16
10688;BME280;5392;42.688;23.298;2024-03-23T12:16:28;94425.72;;;16.65;26.61
10688;BME280;5392;42.688;23.298;2024-03-23T12:18:53;94425.06;;;16.80;26.04
10688;BME280;5392;42.688;23.298;2024-03-23T12:21:30;94426.03;;;16.69;25.82
10688;BME280;5392;42.688;23.298;2024-03-23T12:23:55;94417.63;;;16.94;22.61
10688;BME280;5392;42.688;23.298;2024-03-23T12:26:20;94420.13;;;17.15;21.86
10688;BME280;5392;42.688;23.298;2024-03-23T12:28:48;94415.41;;;17.12;21.72
10688;BME280;5392;42.688;23.298;2024-03-23T12:31:13;94406.25;;;17.05;21.48
10688;BME280;5392;42.688;23.298;2024-03-23T12:33:39;94412.34;;;17.25;20.70
10688;BME280;5392;42.688;23.298;2024-03-23T12:36:05;94399.03;;;17.17;20.60
10688;BME280;5392;42.688;23.298;2024-03-23T12:38:31;94399.09;;;17.27;19.70
10688;BME280;5392;42.688;23.298;2024-03-23T12:40:56;94389.13;;;17.14;20.07
10688;BME280;5392;42.688;23.298;2024-03-23T12:43:22;94393.06;;;17.21;20.00
10688;BME280;5392;42.688;23.298;2024-03-23T12:45:48;94387.91;;;17.31;19.85
10688;BME280;5392;42.688;23.298;2024-03-23T12:48:14;94395.72;;;17.36;20.01
10688;BME280;5392;42.688;23.298;2024-03-23T12:50:39;94385.34;;;17.41;20.03
10688;BME280;5392;42.688;23.298;2024-03-23T12:53:05;94372.16;;;17.53;19.33
10688;BME280;5392;42.688;23.298;2024-03-23T12:55:31;94371.03;;;17.44;19.46
10688;BME280;5392;42.688;23.298;2024-03-23T12:57:56;94367.28;;;17.20;19.42
10688;BME280;5392;42.688;23.298;2024-03-23T13:00:22;94363.19;;;17.39;19.71
10688;BME280;5392;42.688;23.298;2024-03-23T13:02:47;94365.91;;;17.59;19.55
10688;BME280;5392;42.688;23.298;2024-03-23T13:05:13;94352.88;;;17.54;18.99
10688;BME280;5392;42.688;23.298;2024-03-23T13:07:39;94355.97;;;17.51;19.71
10688;BME280;5392;42.688;23.298;2024-03-23T13:10:05;94357.19;;;17.33;19.48
10688;BME280;5392;42.688;23.298;2024-03-23T13:12:31;94351.47;;;17.41;19.54
10688;BME280;5392;42.688;23.298;2024-03-23T13:14:58;94343.13;;;17.39;19.80
10688;BME280;5392;42.688;23.298;2024-03-23T13:17:24;94343.69;;;17.46;19.36
10688;BME280;5392;42.688;23.298;2024-03-23T13:19:49;94344.81;;;17.66;19.97
10688;BME280;5392;42.688;23.298;2024-03-23T13:22:16;94340.16;;;17.78;18.64
10688;BME280;5392;42.688;23.298;2024-03-23T13:24:41;94334.69;;;17.79;19.67
10688;BME280;5392;42.688;23.298;2024-03-23T13:27:07;94332.09;;;17.84;19.70
10688;BME280;5392;42.688;23.298;2024-03-23T13:29:33;94329.75;;;17.78;19.50
10688;BME280;5392;42.688;23.298;2024-03-23T13:31:59;94321.09;;;17.72;19.41
10688;BME280;5392;42.688;23.298;2024-03-23T13:34:25;94325.25;;;17.58;20.70
10688;BME280;5392;42.688;23.298;2024-03-23T13:36:53;94321.09;;;17.72;19.83
10688;BME280;5392;42.688;23.298;2024-03-23T13:39:19;94315.16;;;17.87;20.26
10688;BME280;5392;42.688;23.298;2024-03-23T13:41:45;94319.88;;;18.00;19.41
10688;BME280;5392;42.688;23.298;2024-03-23T13:44:13;94320.69;;;18.05;20.43
10688;BME280;5392;42.688;23.298;2024-03-23T13:46:40;94310.75;;;17.87;19.65
10688;BME280;5392;42.688;23.298;2024-03-23T13:49:18;94306.53;;;17.71;20.65
10688;BME280;5392;42.688;23.298;2024-03-23T13:51:46;94303.88;;;17.61;20.07
10688;BME280;5392;42.688;23.298;2024-03-23T13:54:12;94302.09;;;17.77;19.84
10688;BME280;5392;42.688;23.298;2024-03-23T13:56:38;94300.81;;;17.74;19.52
10688;BME280;5392;42.688;23.298;2024-03-23T13:59:03;94289.31;;;17.65;19.47
10688;BME280;5392;42.688;23.298;2024-03-23T14:01:29;94294.28;;;17.72;20.13
10688;BME280;5392;42.688;23.298;2024-03-23T14:03:55;94290.13;;;17.81;20.50